createdAt,value
2019-06-27T00:02:21.109Z,33.16
2019-06-27T00:04:50.272Z,33.16
2019-06-27T00:07:19.587Z,33.11
2019-06-27T00:09:48.973Z,33.03
2019-06-27T00:12:19.865Z,33.02
2019-06-27T00:14:49.104Z,32.98
2019-06-27T00:17:18.295Z,32.97
2019-06-27T00:19:51.831Z,32.92
2019-06-27T00:22:21.047Z,32.86
2019-06-27T00:24:50.384Z,32.85
2019-06-27T00:27:20.496Z,32.78
2019-06-27T00:29:49.813Z,32.76
2019-06-27T00:32:19.126Z,32.70
2019-06-27T00:34:48.665Z,32.65
2019-06-27T00:37:18.198Z,32.57
2019-06-27T00:39:48.487Z,32.56
2019-06-27T00:42:18.019Z,32.53
2019-06-27T00:44:47.201Z,32.51
2019-06-27T00:47:16.441Z,32.48
2019-06-27T00:49:46.224Z,32.48
2019-06-27T00:52:15.443Z,32.43
2019-06-27T00:54:44.703Z,32.38
2019-06-27T00:57:15.421Z,32.38
2019-06-27T00:59:44.733Z,32.29
2019-06-27T01:02:14.208Z,32.21
2019-06-27T01:04:43.758Z,32.18
2019-06-27T01:07:13.168Z,32.14
2019-06-27T01:09:42.505Z,32.06
2019-06-27T01:12:14.107Z,32.06
2019-06-27T01:14:43.383Z,32.04
2019-06-27T01:17:12.765Z,31.98
2019-06-27T01:19:43.360Z,31.93
2019-06-27T01:22:12.588Z,31.88
2019-06-27T01:24:41.981Z,31.79
2019-06-27T01:27:11.263Z,31.81
2019-06-27T01:29:40.556Z,31.77
2019-06-27T01:32:10.166Z,31.79
2019-06-27T01:34:39.453Z,31.70
2019-06-27T01:37:08.668Z,31.59
2019-06-27T01:39:38.306Z,31.57
2019-06-27T01:42:07.604Z,31.50
2019-06-27T01:45:11.024Z,31.41
2019-06-27T01:47:40.609Z,31.37
2019-06-27T01:50:09.923Z,31.30
2019-06-27T01:52:39.260Z,31.25
2019-06-27T01:55:08.838Z,31.27
2019-06-27T01:57:46.652Z,31.25
2019-06-27T02:00:10.216Z,31.27
2019-06-27T02:02:39.826Z,31.24
2019-06-27T02:05:09.018Z,31.20
2019-06-27T02:07:38.310Z,31.15
2019-06-27T02:10:07.977Z,31.12
2019-06-27T02:12:37.225Z,31.09
2019-06-27T02:15:06.632Z,31.02
2019-06-27T02:17:36.124Z,30.98
2019-06-27T02:20:08.478Z,30.96
2019-06-27T02:22:37.832Z,30.91
2019-06-27T02:25:07.661Z,30.91
2019-06-27T02:27:36.885Z,30.87
2019-06-27T02:30:09.460Z,30.81
2019-06-27T02:32:38.793Z,30.70
2019-06-27T02:35:12.886Z,30.69
2019-06-27T02:37:43.498Z,30.64
2019-06-27T02:40:12.728Z,30.56
2019-06-27T02:42:42.169Z,30.54
2019-06-27T02:45:11.954Z,30.56
2019-06-27T02:47:41.155Z,30.56
2019-06-27T02:50:10.504Z,30.58
2019-06-27T02:52:40.109Z,30.54
2019-06-27T02:55:09.368Z,30.47
2019-06-27T02:57:38.649Z,30.43
2019-06-27T03:00:09.292Z,30.44
2019-06-27T03:02:38.583Z,30.39
2019-06-27T03:05:07.907Z,30.36
2019-06-27T03:07:39.708Z,30.32
2019-06-27T03:10:09.432Z,30.29
2019-06-27T03:12:38.732Z,30.28
2019-06-27T03:15:09.272Z,30.23
2019-06-27T03:17:38.506Z,30.19
2019-06-27T03:20:07.940Z,30.14
2019-06-27T03:22:37.495Z,30.12
2019-06-27T03:25:06.826Z,30.10
2019-06-27T03:27:36.140Z,30.09
2019-06-27T03:30:06.770Z,30.06
2019-06-27T03:32:35.959Z,29.97
2019-06-27T03:35:05.863Z,29.99
2019-06-27T03:37:35.515Z,29.96
2019-06-27T03:40:07.395Z,29.91
2019-06-27T03:42:36.692Z,29.89
2019-06-27T03:45:06.479Z,29.80
2019-06-27T03:47:35.960Z,29.80
2019-06-27T03:50:09.314Z,29.76
2019-06-27T03:52:45.355Z,29.73
2019-06-27T03:55:15.249Z,29.69
2019-06-27T03:57:45.675Z,29.60
2019-06-27T04:00:23.855Z,29.56
2019-06-27T04:02:53.083Z,29.58
2019-06-27T04:05:23.447Z,29.53
2019-06-27T04:07:53.396Z,29.55
2019-06-27T04:10:23.236Z,29.57
2019-06-27T04:12:53.745Z,29.49
2019-06-27T04:15:23.110Z,29.53
2019-06-27T04:17:53.003Z,29.53
2019-06-27T04:20:25.622Z,29.53
2019-06-27T04:22:55.666Z,29.52
2019-06-27T04:25:25.765Z,29.52
2019-06-27T04:28:00.109Z,29.49
2019-06-27T04:30:29.858Z,29.48
2019-06-27T04:32:59.931Z,29.51
2019-06-27T04:35:30.094Z,29.47
2019-06-27T04:38:00.717Z,29.43
2019-06-27T04:40:30.655Z,29.37
2019-06-27T04:43:05.309Z,29.37
2019-06-27T04:45:33.251Z,29.33
2019-06-27T04:48:05.434Z,29.30
2019-06-27T04:50:34.701Z,29.27
2019-06-27T04:53:04.297Z,29.19
2019-06-27T04:55:33.627Z,29.24
2019-06-27T04:58:04.896Z,29.26
2019-06-27T05:00:35.365Z,29.20
2019-06-27T05:03:04.696Z,29.24
2019-06-27T05:05:34.018Z,29.23
2019-06-27T05:08:07.856Z,29.21
2019-06-27T05:10:37.633Z,29.16
2019-06-27T05:13:06.896Z,29.13
2019-06-27T05:15:36.690Z,29.12
2019-06-27T05:18:09.285Z,29.14
2019-06-27T05:20:38.676Z,29.05
2019-06-27T05:23:08.267Z,29.03
2019-06-27T05:25:37.689Z,29.04
2019-06-27T05:28:07.293Z,28.99
2019-06-27T05:30:36.648Z,28.97
2019-06-27T05:33:06.078Z,28.97
2019-06-27T05:35:35.564Z,28.97
2019-06-27T05:38:07.947Z,28.91
2019-06-27T05:40:37.231Z,28.85
2019-06-27T05:43:06.468Z,28.77
2019-06-27T05:45:35.783Z,28.81
2019-06-27T05:48:07.468Z,28.85
2019-06-27T05:50:36.852Z,28.89
2019-06-27T05:53:06.147Z,28.99
2019-06-27T05:55:35.736Z,28.98
2019-06-27T05:58:05.821Z,29.05
2019-06-27T06:00:35.384Z,29.06
2019-06-27T06:03:04.864Z,29.01
2019-06-27T06:05:34.253Z,29.00
2019-06-27T06:08:06.366Z,29.00
2019-06-27T06:10:35.659Z,28.97
2019-06-27T06:13:05.193Z,28.97
2019-06-27T06:15:34.866Z,29.03
2019-06-27T06:18:05.265Z,29.00
2019-06-27T06:20:34.528Z,29.01
2019-06-27T06:23:04.254Z,29.05
2019-06-27T06:25:33.465Z,29.05
2019-06-27T06:28:03.288Z,29.13
2019-06-27T06:30:44.321Z,29.23
2019-06-27T06:33:09.613Z,29.23
2019-06-27T06:35:38.834Z,29.26
2019-06-27T06:38:08.499Z,29.28
2019-06-27T06:40:37.856Z,29.30
2019-06-27T06:43:08.929Z,29.33
2019-06-27T06:45:40.736Z,29.30
2019-06-27T06:48:11.202Z,29.40
2019-06-27T06:50:40.575Z,29.32
2019-06-27T06:53:11.177Z,29.35
2019-06-27T06:55:42.931Z,29.36
2019-06-27T06:58:12.413Z,29.33
2019-06-27T07:00:57.064Z,29.35
2019-06-27T07:03:14.969Z,29.41
2019-06-27T07:05:44.822Z,29.45
2019-06-27T07:08:16.064Z,29.45
2019-06-27T07:10:45.578Z,29.45
2019-06-27T07:13:18.002Z,29.42
2019-06-27T07:15:49.656Z,29.39
2019-06-27T07:18:22.334Z,29.41
2019-06-27T07:20:51.773Z,29.41
2019-06-27T07:23:27.523Z,29.43
2019-06-27T07:26:00.514Z,29.48
2019-06-27T07:28:30.064Z,29.52
2019-06-27T07:31:17.159Z,29.52
2019-06-27T07:33:39.426Z,29.48
2019-06-27T07:36:11.691Z,29.44
2019-06-27T07:38:46.905Z,29.47
2019-06-27T07:41:18.269Z,29.40
2019-06-27T07:43:47.993Z,29.41
2019-06-27T07:46:25.295Z,29.45
2019-06-27T07:48:49.403Z,29.47
2019-06-27T07:51:19.299Z,29.42
2019-06-27T07:53:51.715Z,29.45
2019-06-27T07:56:25.939Z,29.48
2019-06-27T07:58:57.789Z,29.55
2019-06-27T08:01:35.199Z,29.61
2019-06-27T08:03:58.090Z,29.59
2019-06-27T08:06:27.379Z,29.63
2019-06-27T08:08:56.569Z,29.62
2019-06-27T08:11:25.871Z,29.58
2019-06-27T08:13:58.123Z,29.60
2019-06-27T08:16:27.606Z,29.63
2019-06-27T08:18:56.867Z,29.66
2019-06-27T08:21:30.564Z,29.89
2019-06-27T08:24:00.197Z,29.88
2019-06-27T08:26:29.559Z,29.89
2019-06-27T08:28:58.863Z,29.82
2019-06-27T08:31:28.524Z,29.82
2019-06-27T08:33:57.910Z,29.77
2019-06-27T08:36:27.506Z,29.80
2019-06-27T08:38:57.168Z,29.76
2019-06-27T08:41:26.513Z,29.77
2019-06-27T08:43:55.793Z,29.76
2019-06-27T08:46:25.337Z,29.78
2019-06-27T08:48:54.779Z,29.78
2019-06-27T08:51:24.331Z,29.78
2019-06-27T08:53:54.483Z,29.85
2019-06-27T08:56:23.723Z,29.83
2019-06-27T08:58:52.981Z,29.79
2019-06-27T09:01:22.607Z,29.84
2019-06-27T09:03:51.906Z,29.88
2019-06-27T09:06:21.375Z,29.90
2019-06-27T09:08:50.993Z,29.90
2019-06-27T09:11:20.343Z,29.96
2019-06-27T09:13:49.607Z,29.93
2019-06-27T09:16:19.138Z,29.98
2019-06-27T09:18:48.434Z,30.03
2019-06-27T09:21:17.981Z,30.02
2019-06-27T09:23:48.165Z,30.07
2019-06-27T09:26:17.924Z,30.07
2019-06-27T09:28:47.294Z,30.04
2019-06-27T09:31:18.470Z,30.06
2019-06-27T09:33:47.833Z,30.04
2019-06-27T09:36:17.226Z,30.11
2019-06-27T09:38:46.776Z,30.19
2019-06-27T09:41:16.327Z,30.24
2019-06-27T09:43:45.575Z,30.33
2019-06-27T09:46:15.264Z,30.38
2019-06-27T09:48:44.550Z,30.46
2019-06-27T09:51:14.201Z,30.53
2019-06-27T09:53:43.835Z,30.60
2019-06-27T09:56:13.146Z,30.70
2019-06-27T09:58:42.423Z,30.73
2019-06-27T10:01:13.129Z,30.76
2019-06-27T10:03:42.375Z,30.83
2019-06-27T10:06:11.667Z,30.89
2019-06-27T10:08:41.394Z,30.94
2019-06-27T10:11:10.747Z,31.00
2019-06-27T10:13:39.987Z,31.02
2019-06-27T10:16:09.668Z,31.09
2019-06-27T10:18:39.109Z,31.11
2019-06-27T10:21:08.751Z,31.17
2019-06-27T10:23:38.413Z,31.20
2019-06-27T10:26:07.781Z,31.29
2019-06-27T10:28:37.101Z,31.36
2019-06-27T10:31:06.451Z,31.44
2019-06-27T10:33:35.745Z,31.51
2019-06-27T10:36:09.631Z,31.56
2019-06-27T10:38:39.214Z,31.63
2019-06-27T10:41:08.485Z,31.70
2019-06-27T10:43:38.169Z,31.76
2019-06-27T10:46:07.635Z,31.82
2019-06-27T10:48:38.203Z,31.89
2019-06-27T10:51:07.485Z,31.94
2019-06-27T10:53:37.613Z,32.00
2019-06-27T10:56:08.662Z,32.04
2019-06-27T10:58:38.022Z,32.13
2019-06-27T11:01:07.291Z,32.29
2019-06-27T11:03:38.507Z,32.39
2019-06-27T11:06:07.920Z,32.52
2019-06-27T11:08:37.247Z,32.55
2019-06-27T11:11:07.814Z,32.60
2019-06-27T11:13:37.323Z,32.70
2019-06-27T11:16:07.041Z,32.76
2019-06-27T11:18:39.864Z,32.83
2019-06-27T11:21:09.521Z,32.90
2019-06-27T11:23:39.363Z,32.97
2019-06-27T11:26:09.737Z,33.04
2019-06-27T11:28:39.688Z,33.06
2019-06-27T11:31:09.801Z,33.18
2019-06-27T11:33:42.067Z,33.31
2019-06-27T11:36:12.181Z,33.38
2019-06-27T11:38:45.941Z,33.53
2019-06-27T11:41:16.209Z,33.65
2019-06-27T11:43:46.611Z,33.72
2019-06-27T11:46:16.872Z,33.81
2019-06-27T11:48:47.017Z,33.99
2019-06-27T11:51:17.109Z,34.09
2019-06-27T11:53:46.997Z,34.18
2019-06-27T11:56:19.510Z,34.27
2019-06-27T11:58:49.459Z,34.35
2019-06-27T12:01:22.086Z,34.47
2019-06-27T12:03:52.507Z,34.66
2019-06-27T12:06:22.969Z,34.96
2019-06-27T12:08:53.480Z,35.28
2019-06-27T12:11:23.994Z,35.44
2019-06-27T12:13:53.833Z,35.56
2019-06-27T12:16:23.951Z,35.76
2019-06-27T12:18:54.393Z,36.09
2019-06-27T12:21:25.186Z,36.29
2019-06-27T12:23:58.636Z,36.57
2019-06-27T12:26:29.703Z,36.94
2019-06-27T12:29:00.187Z,37.20
2019-06-27T12:31:31.630Z,37.46
2019-06-27T12:34:07.328Z,37.91
2019-06-27T12:36:36.192Z,38.24
2019-06-27T12:39:07.279Z,38.64
2019-06-27T12:41:37.607Z,39.02
2019-06-27T12:44:07.860Z,39.28
2019-06-27T12:46:38.302Z,39.84
2019-06-27T12:49:08.895Z,40.31
2019-06-27T12:51:39.544Z,40.84
2019-06-27T12:54:10.050Z,40.73
2019-06-27T12:56:42.531Z,41.39
2019-06-27T12:59:13.099Z,41.93
2019-06-27T13:01:43.837Z,42.07
2019-06-27T13:04:23.557Z,42.72
2019-06-27T13:06:46.267Z,42.93
2019-06-27T13:09:21.324Z,43.41
2019-06-27T13:11:52.248Z,43.90
2019-06-27T13:14:22.903Z,44.03
2019-06-27T13:16:54.894Z,44.22
2019-06-27T13:19:25.957Z,44.59
2019-06-27T13:21:58.157Z,44.97
2019-06-27T13:24:28.749Z,45.44
2019-06-27T13:27:04.160Z,45.94
2019-06-27T13:29:36.726Z,46.03
2019-06-27T13:32:07.268Z,46.17
2019-06-27T13:34:41.099Z,46.25
2019-06-27T13:37:13.976Z,46.40
2019-06-27T13:39:46.640Z,46.86
2019-06-27T13:42:19.324Z,46.68
2019-06-27T13:44:50.505Z,46.85
2019-06-27T13:47:24.626Z,46.49
2019-06-27T13:49:55.707Z,47.78
2019-06-27T13:52:25.925Z,47.66
2019-06-27T13:54:57.351Z,48.04
2019-06-27T13:57:28.729Z,48.12
2019-06-27T13:59:59.357Z,48.84
2019-06-27T14:02:31.537Z,48.92
2019-06-27T14:05:01.894Z,48.97
2019-06-27T14:07:37.160Z,49.35
2019-06-27T14:10:08.672Z,49.43
2019-06-27T14:12:44.771Z,49.81
2019-06-27T14:15:15.052Z,49.99
2019-06-27T14:17:46.057Z,50.24
2019-06-27T14:20:17.267Z,50.02
2019-06-27T14:22:48.645Z,50.61
2019-06-27T14:25:21.219Z,50.12
2019-06-27T14:27:53.128Z,50.42
2019-06-27T14:30:26.102Z,50.67
2019-06-27T14:33:00.855Z,50.78
2019-06-27T14:35:44.970Z,50.79
2019-06-27T14:38:21.302Z,51.09
2019-06-27T14:40:59.013Z,51.18
2019-06-27T14:43:30.201Z,51.20
2019-06-27T14:46:00.655Z,51.04
2019-06-27T14:48:31.936Z,51.22
2019-06-27T14:51:06.831Z,51.51
2019-06-27T14:53:37.961Z,51.15
2019-06-27T14:56:12.562Z,51.13
2019-06-27T14:58:48.541Z,51.40
2019-06-27T15:01:26.189Z,51.45
2019-06-27T15:04:09.061Z,51.50
2019-06-27T15:06:45.452Z,51.21
2019-06-27T15:09:18.162Z,51.73
2019-06-27T15:11:51.509Z,52.02
2019-06-27T15:14:22.883Z,51.85
2019-06-27T15:17:13.090Z,51.55
2019-06-27T15:19:44.728Z,51.72
2019-06-27T15:22:19.569Z,51.70
2019-06-27T15:24:53.455Z,51.60
2019-06-27T15:27:32.078Z,51.84
2019-06-27T15:30:06.099Z,51.26
2019-06-27T15:32:37.066Z,51.24
2019-06-27T15:35:07.523Z,51.31
2019-06-27T15:37:40.435Z,50.95
2019-06-27T15:40:16.296Z,50.51
2019-06-27T15:42:56.715Z,50.05
2019-06-27T15:45:36.094Z,49.26
2019-06-27T15:48:14.405Z,48.67
2019-06-27T15:50:53.555Z,47.82
2019-06-27T15:53:26.305Z,46.69
2019-06-27T15:55:57.308Z,45.51
2019-06-27T15:58:37.882Z,44.91
2019-06-27T16:01:17.747Z,44.58
2019-06-27T16:03:50.435Z,43.88
2019-06-27T16:06:23.863Z,43.63
2019-06-27T16:08:55.678Z,43.09
2019-06-27T16:11:29.411Z,42.97
2019-06-27T16:14:07.739Z,42.90
2019-06-27T16:16:44.586Z,42.98
2019-06-27T16:19:19.158Z,42.93
2019-06-27T16:21:56.269Z,43.00
2019-06-27T16:24:31.998Z,43.07
2019-06-27T16:27:16.023Z,43.08
2019-06-27T16:29:50.877Z,42.90
2019-06-27T16:32:27.779Z,42.57
2019-06-27T16:35:00.427Z,42.15
2019-06-27T16:37:35.460Z,41.98
2019-06-27T16:40:24.238Z,41.95
2019-06-27T16:42:57.524Z,41.97
2019-06-27T16:45:30.075Z,42.11
2019-06-27T16:48:02.551Z,41.90
2019-06-27T16:50:33.068Z,41.70
2019-06-27T16:53:05.467Z,41.18
2019-06-27T16:55:36.299Z,41.04
2019-06-27T16:58:11.303Z,41.07
2019-06-27T17:00:44.545Z,41.14
2019-06-27T17:03:16.672Z,40.87
2019-06-27T17:06:06.205Z,41.02
2019-06-27T17:08:39.864Z,40.57
2019-06-27T17:11:10.916Z,40.58
2019-06-27T17:13:41.933Z,40.58
2019-06-27T17:16:13.198Z,40.07
2019-06-27T17:18:48.423Z,39.91
2019-06-27T17:21:18.791Z,39.85
2019-06-27T17:23:49.575Z,39.56
2019-06-27T17:26:26.529Z,39.64
2019-06-27T17:29:03.078Z,39.58
2019-06-27T17:31:39.617Z,39.58
2019-06-27T17:34:16.300Z,39.45
2019-06-27T17:36:57.530Z,39.25
2019-06-27T17:39:34.155Z,39.36
2019-06-27T17:42:16.980Z,39.02
2019-06-27T17:44:56.153Z,38.62
2019-06-27T17:47:39.843Z,38.61
2019-06-27T17:50:30.458Z,38.25
2019-06-27T17:53:07.844Z,38.21
2019-06-27T17:55:42.518Z,38.21
2019-06-27T17:58:14.884Z,38.02
2019-06-27T18:00:50.302Z,38.01
2019-06-27T18:03:23.220Z,37.87
2019-06-27T18:05:55.073Z,37.70
2019-06-27T18:08:31.175Z,37.64
2019-06-27T18:11:11.920Z,37.60
2019-06-27T18:13:49.547Z,37.43
2019-06-27T18:16:25.511Z,37.13
2019-06-27T18:19:00.839Z,37.04
2019-06-27T18:21:32.795Z,36.86
2019-06-27T18:24:08.648Z,36.69
2019-06-27T18:26:39.385Z,36.64
2019-06-27T18:29:12.418Z,36.49
2019-06-27T18:31:47.861Z,36.49
2019-06-27T18:34:27.012Z,36.06
2019-06-27T18:37:03.831Z,35.48
2019-06-27T18:40:12.662Z,35.25
2019-06-27T18:42:52.062Z,34.85
2019-06-27T18:45:34.882Z,34.73
2019-06-27T18:48:09.175Z,34.46
2019-06-27T18:50:41.597Z,34.36
2019-06-27T18:53:23.108Z,34.11
2019-06-27T18:55:57.139Z,34.06
2019-06-27T18:58:40.494Z,33.95
2019-06-27T19:04:26.943Z,33.71
2019-06-27T19:07:00.648Z,33.75
2019-06-27T19:09:36.058Z,33.77
2019-06-27T19:15:09.561Z,33.82
2019-06-27T19:17:46.683Z,33.80
2019-06-27T19:20:37.285Z,33.77
2019-06-27T19:23:38.919Z,33.56
2019-06-27T19:26:13.250Z,33.50
2019-06-27T19:29:05.633Z,33.56
2019-06-27T19:31:39.710Z,33.63
2019-06-27T19:35:13.339Z,33.65
2019-06-27T19:38:04.400Z,33.53
2019-06-27T19:40:58.335Z,33.46
2019-06-27T19:44:23.718Z,33.48
2019-06-27T19:47:03.544Z,33.53
2019-06-27T19:49:37.278Z,33.38
2019-06-27T19:52:18.437Z,33.23
2019-06-27T19:55:40.157Z,33.20
2019-06-27T19:59:17.896Z,33.10
2019-06-27T20:02:09.789Z,33.01
2019-06-27T20:04:58.617Z,32.80
2019-06-27T20:07:32.013Z,32.76
2019-06-27T20:10:12.917Z,32.64
2019-06-27T20:12:51.964Z,32.70
2019-06-27T20:15:58.227Z,32.64
2019-06-27T20:18:36.747Z,32.64
2019-06-27T20:21:18.237Z,32.55
2019-06-27T20:24:10.746Z,32.39
2019-06-27T20:26:51.589Z,32.39
2019-06-27T20:29:45.160Z,32.49
2019-06-27T20:32:19.237Z,32.59
2019-06-27T20:34:59.231Z,32.57
2019-06-27T20:37:50.477Z,32.52
2019-06-27T20:40:25.203Z,32.52
2019-06-27T20:43:07.913Z,32.51
2019-06-27T20:45:39.374Z,32.48
2019-06-27T20:48:12.519Z,32.54
2019-06-27T20:50:44.059Z,32.43
2019-06-27T20:53:17.234Z,32.41
2019-06-27T20:55:49.959Z,32.35
2019-06-27T20:58:29.108Z,32.42
2019-06-27T21:01:00.383Z,32.48
2019-06-27T21:03:31.048Z,32.45
2019-06-27T21:06:03.529Z,32.35
2019-06-27T21:08:50.895Z,32.37
2019-06-27T21:11:17.644Z,32.42
2019-06-27T21:13:50.254Z,32.41
2019-06-27T21:16:21.134Z,32.34
2019-06-27T21:18:52.762Z,32.33
2019-06-27T21:21:32.553Z,32.24
2019-06-27T21:24:05.549Z,32.22
2019-06-27T21:26:35.970Z,32.21
2019-06-27T21:29:06.062Z,32.13
2019-06-27T21:31:35.998Z,32.03
2019-06-27T21:34:09.306Z,31.98
2019-06-27T21:36:39.155Z,31.93
2019-06-27T21:39:08.956Z,31.83
2019-06-27T21:41:38.863Z,31.74
2019-06-27T21:44:08.297Z,31.67
2019-06-27T21:46:37.574Z,31.69
2019-06-27T21:49:07.198Z,31.60
2019-06-27T21:51:36.519Z,31.52
2019-06-27T21:54:14.113Z,31.39
2019-06-27T21:56:54.968Z,31.32
2019-06-27T21:59:27.961Z,31.29
2019-06-27T22:01:57.673Z,31.22
2019-06-27T22:04:30.423Z,31.19
2019-06-27T22:07:25.069Z,31.18
2019-06-27T22:09:59.648Z,31.12
2019-06-27T22:12:28.989Z,31.06
2019-06-27T22:14:59.853Z,30.95
2019-06-27T22:17:34.428Z,30.90
2019-06-27T22:20:15.937Z,30.82
2019-06-27T22:22:45.463Z,30.79
2019-06-27T22:25:21.569Z,30.76
2019-06-27T22:27:51.054Z,30.72
2019-06-27T22:30:20.468Z,30.68
2019-06-27T22:32:53.247Z,30.65
2019-06-27T22:35:22.585Z,30.63
2019-06-27T22:38:09.508Z,30.56
2019-06-27T22:40:59.614Z,30.55
2019-06-27T22:43:47.927Z,30.46
2019-06-27T22:46:38.068Z,30.41
2019-06-27T22:49:06.334Z,30.38
2019-06-27T22:51:59.295Z,30.34
2019-06-27T22:54:29.774Z,30.31
2019-06-27T22:56:59.385Z,30.29
2019-06-27T22:59:29.146Z,30.22
2019-06-27T23:01:58.416Z,30.17
2019-06-27T23:04:30.177Z,30.10
2019-06-27T23:07:03.435Z,30.04
2019-06-27T23:09:33.618Z,29.98
2019-06-27T23:12:27.605Z,29.95
2019-06-27T23:15:00.715Z,29.90
2019-06-27T23:17:31.935Z,29.86
2019-06-27T23:20:03.475Z,29.82
2019-06-27T23:22:35.936Z,29.76
2019-06-27T23:25:07.975Z,29.66
2019-06-27T23:27:39.594Z,29.60
2019-06-27T23:30:08.867Z,29.53
2019-06-27T23:32:38.079Z,29.46
2019-06-27T23:35:08.672Z,29.40
2019-06-27T23:37:37.931Z,29.36
2019-06-27T23:40:14.218Z,29.31
2019-06-27T23:42:40.922Z,29.29
2019-06-27T23:45:10.377Z,29.21
2019-06-27T23:47:39.760Z,29.16
2019-06-27T23:50:09.705Z,29.07
2019-06-27T23:52:39.087Z,29.06
2019-06-27T23:55:08.657Z,29.00
2019-06-27T23:57:38.199Z,28.98
